createdAt,value
2022-07-29T00:02:27.502Z,79.80
2022-07-29T00:04:54.346Z,80.80
2022-07-29T00:07:21.146Z,81.40
2022-07-29T00:09:50.822Z,81.10
2022-07-29T00:12:25.108Z,80.20
2022-07-29T00:14:54.396Z,79.90
2022-07-29T00:17:21.132Z,79.60
2022-07-29T00:19:47.823Z,79.40
2022-07-29T00:22:14.715Z,80.50
2022-07-29T00:24:41.468Z,83.60
2022-07-29T00:27:08.168Z,85.30
2022-07-29T00:29:35.313Z,85.90
2022-07-29T00:32:03.227Z,85.20
2022-07-29T00:34:48.879Z,84.40
2022-07-29T00:37:15.563Z,85.50
2022-07-29T00:39:42.232Z,86.30
2022-07-29T00:42:09.167Z,86.50
2022-07-29T00:44:42.673Z,86.50
2022-07-29T00:47:11.536Z,85.40
2022-07-29T00:49:40.427Z,86.10
2022-07-29T00:52:08.622Z,85.20
2022-07-29T00:54:37.412Z,85.20
2022-07-29T00:57:12.054Z,84.40
2022-07-29T00:59:38.802Z,84.60
2022-07-29T01:02:05.658Z,84.10
2022-07-29T01:04:32.901Z,84.40
2022-07-29T01:07:02.414Z,83.10
2022-07-29T01:09:46.222Z,83.70
2022-07-29T01:12:17.571Z,83.60
2022-07-29T01:14:44.815Z,85.10
2022-07-29T01:17:33.221Z,84.50
2022-07-29T01:20:19.757Z,84.10
2022-07-29T01:22:55.299Z,83.10
2022-07-29T01:25:36.827Z,84.40
2022-07-29T01:28:35.861Z,84.40
2022-07-29T01:31:05.202Z,83.90
2022-07-29T01:33:51.014Z,83.00
2022-07-29T01:36:28.990Z,83.50
2022-07-29T01:39:11.060Z,83.30
2022-07-29T01:41:44.121Z,81.90
2022-07-29T01:44:18.788Z,81.90
2022-07-29T01:46:53.133Z,82.60
2022-07-29T01:49:25.183Z,83.40
2022-07-29T01:52:03.240Z,82.80
2022-07-29T01:54:43.912Z,82.40
2022-07-29T01:57:18.326Z,83.70
2022-07-29T01:59:47.403Z,83.40
2022-07-29T02:02:16.902Z,82.30
2022-07-29T02:04:49.271Z,84.00
2022-07-29T02:07:20.154Z,84.20
2022-07-29T02:09:50.164Z,83.90
2022-07-29T02:12:20.358Z,83.10
2022-07-29T02:14:51.306Z,83.70
2022-07-29T02:17:24.718Z,84.40
2022-07-29T02:19:53.762Z,83.80
2022-07-29T02:22:21.321Z,83.40
2022-07-29T02:24:51.378Z,83.20
2022-07-29T02:27:20.748Z,83.40
2022-07-29T02:29:48.606Z,83.80
2022-07-29T02:32:17.278Z,83.30
2022-07-29T02:34:45.690Z,83.50
2022-07-29T02:37:13.770Z,83.40
2022-07-29T02:39:43.124Z,83.40
2022-07-29T02:42:14.945Z,84.00
2022-07-29T02:44:42.223Z,84.30
2022-07-29T02:47:12.526Z,84.40
2022-07-29T02:50:12.267Z,83.70
2022-07-29T02:52:42.223Z,83.60
2022-07-29T02:55:17.490Z,83.90
2022-07-29T02:57:54.996Z,85.30
2022-07-29T03:00:24.759Z,85.40
2022-07-29T03:02:53.766Z,86.40
2022-07-29T03:05:21.871Z,87.40
2022-07-29T03:07:58.482Z,87.00
2022-07-29T03:10:27.804Z,87.30
2022-07-29T03:12:56.628Z,88.10
2022-07-29T03:15:24.774Z,87.80
2022-07-29T03:17:53.315Z,87.20
2022-07-29T03:20:20.399Z,86.60
2022-07-29T03:22:50.033Z,86.90
2022-07-29T03:25:21.058Z,88.00
2022-07-29T03:27:49.180Z,88.90
2022-07-29T03:30:18.434Z,88.40
2022-07-29T03:32:49.889Z,89.20
2022-07-29T03:35:20.397Z,89.20
2022-07-29T03:37:47.739Z,89.00
2022-07-29T03:40:28.557Z,89.40
2022-07-29T03:42:56.391Z,89.70
2022-07-29T03:45:25.183Z,89.30
2022-07-29T03:48:00.673Z,90.30
2022-07-29T03:50:29.649Z,90.50
2022-07-29T03:52:56.486Z,90.70
2022-07-29T03:55:23.347Z,90.80
2022-07-29T03:57:50.811Z,91.60
2022-07-29T04:00:17.917Z,91.50
2022-07-29T04:02:49.170Z,91.70
2022-07-29T04:05:16.838Z,92.60
2022-07-29T04:07:47.932Z,92.90
2022-07-29T04:10:16.680Z,93.20
2022-07-29T04:12:43.904Z,94.00
2022-07-29T04:15:11.462Z,94.00
2022-07-29T04:17:38.171Z,94.10
2022-07-29T04:20:05.766Z,94.40
2022-07-29T04:22:32.455Z,94.80
2022-07-29T04:25:03.679Z,94.90
2022-07-29T04:27:31.030Z,95.90
2022-07-29T04:29:57.808Z,96.40
2022-07-29T04:32:25.482Z,96.80
2022-07-29T04:34:52.413Z,96.80
2022-07-29T04:37:19.484Z,96.50
2022-07-29T04:39:46.186Z,96.60
2022-07-29T04:42:13.304Z,96.90
2022-07-29T04:44:43.235Z,97.50
2022-07-29T04:47:10.279Z,97.60
2022-07-29T04:49:39.580Z,97.40
2022-07-29T04:52:07.047Z,97.50
2022-07-29T04:54:34.351Z,98.10
2022-07-29T04:57:01.073Z,98.20
2022-07-29T04:59:28.053Z,98.00
2022-07-29T05:01:54.899Z,98.00
2022-07-29T05:04:21.670Z,98.30
2022-07-29T05:06:48.645Z,99.10
2022-07-29T05:09:15.401Z,99.00
2022-07-29T05:11:42.100Z,98.90
2022-07-29T05:14:08.787Z,98.90
2022-07-29T05:16:35.487Z,99.00
2022-07-29T05:19:02.432Z,99.00
2022-07-29T05:21:29.117Z,99.50
2022-07-29T05:23:55.882Z,99.40
2022-07-29T05:26:22.631Z,99.70
2022-07-29T05:28:49.304Z,99.00
2022-07-29T05:31:16.108Z,99.20
2022-07-29T05:33:43.297Z,99.20
2022-07-29T05:36:09.969Z,99.30
2022-07-29T05:38:37.458Z,99.30
2022-07-29T05:41:05.954Z,99.60
2022-07-29T05:43:33.287Z,99.50
2022-07-29T05:46:00.542Z,99.50
2022-07-29T05:48:27.415Z,99.30
2022-07-29T05:50:54.636Z,99.50
2022-07-29T05:53:21.420Z,99.10
2022-07-29T05:55:48.953Z,99.00
2022-07-29T05:58:15.951Z,98.30
2022-07-29T06:00:42.834Z,98.50
2022-07-29T06:03:09.559Z,99.00
2022-07-29T06:05:36.358Z,98.30
2022-07-29T06:08:03.236Z,98.70
2022-07-29T06:10:29.985Z,98.10
2022-07-29T06:12:56.768Z,97.90
2022-07-29T06:15:23.428Z,97.70
2022-07-29T06:18:00.020Z,97.10
2022-07-29T06:20:32.392Z,97.00
2022-07-29T06:23:00.227Z,96.30
2022-07-29T06:25:30.029Z,96.10
2022-07-29T06:27:56.962Z,96.60
2022-07-29T06:30:23.808Z,96.10
2022-07-29T06:32:50.729Z,95.30
2022-07-29T06:35:38.808Z,93.70
2022-07-29T06:38:08.422Z,93.10
2022-07-29T06:41:08.535Z,91.30
2022-07-29T06:43:51.754Z,89.20
2022-07-29T06:46:22.034Z,84.30
2022-07-29T06:48:49.132Z,79.30
2022-07-29T06:51:17.259Z,75.40
2022-07-29T06:54:01.728Z,72.40
2022-07-29T06:56:39.284Z,69.50
2022-07-29T06:59:10.571Z,68.30
2022-07-29T07:01:38.994Z,63.80
2022-07-29T07:04:06.000Z,61.40
2022-07-29T07:06:32.752Z,59.50
2022-07-29T07:08:59.439Z,58.20
2022-07-29T07:11:26.090Z,57.10
2022-07-29T07:13:52.767Z,56.20
2022-07-29T07:16:19.560Z,54.90
2022-07-29T07:18:46.386Z,54.10
2022-07-29T07:21:19.212Z,53.10
2022-07-29T07:23:46.862Z,53.20
2022-07-29T07:26:13.569Z,52.20
2022-07-29T07:28:40.302Z,52.70
2022-07-29T07:31:07.123Z,53.00
2022-07-29T07:33:33.824Z,52.50
2022-07-29T07:36:00.518Z,53.20
2022-07-29T07:38:27.214Z,55.20
2022-07-29T07:40:53.878Z,55.10
2022-07-29T07:43:20.586Z,55.10
2022-07-29T07:45:47.286Z,55.80
2022-07-29T07:48:14.152Z,56.30
2022-07-29T07:50:40.909Z,56.20
2022-07-29T07:53:07.833Z,56.70
2022-07-29T07:56:00.000Z,57.30
2022-07-29T07:58:21.281Z,59.30
2022-07-29T08:00:48.381Z,57.90
2022-07-29T08:03:16.839Z,58.60
2022-07-29T08:05:44.547Z,59.60
2022-07-29T08:08:11.260Z,58.70
2022-07-29T08:10:53.169Z,58.20
2022-07-29T08:13:22.162Z,59.20
2022-07-29T08:15:58.236Z,60.70
2022-07-29T08:18:26.129Z,60.70
2022-07-29T08:20:52.954Z,59.80
2022-07-29T08:23:23.653Z,60.00
2022-07-29T08:25:52.206Z,60.90
2022-07-29T08:28:21.556Z,59.80
2022-07-29T08:30:53.098Z,60.80
2022-07-29T08:33:19.835Z,61.60
2022-07-29T08:35:46.645Z,56.50
2022-07-29T08:38:13.327Z,59.10
2022-07-29T08:40:40.651Z,60.90
2022-07-29T08:43:09.242Z,59.50
2022-07-29T08:45:50.161Z,59.10
2022-07-29T08:48:19.300Z,59.50
2022-07-29T08:50:46.983Z,57.50
2022-07-29T08:53:18.693Z,58.80
2022-07-29T08:55:50.525Z,58.00
2022-07-29T08:58:18.078Z,59.30
2022-07-29T09:00:54.777Z,60.70
2022-07-29T09:03:26.462Z,61.20
2022-07-29T09:05:54.025Z,59.50
2022-07-29T09:08:21.140Z,58.60
2022-07-29T09:10:48.207Z,59.70
2022-07-29T09:13:14.892Z,62.00
2022-07-29T09:15:41.666Z,62.20
2022-07-29T09:18:08.317Z,64.20
2022-07-29T09:21:11.491Z,61.90
2022-07-29T09:23:38.200Z,62.70
2022-07-29T09:26:06.789Z,60.30
2022-07-29T09:28:33.658Z,59.80
2022-07-29T09:31:00.525Z,56.70
2022-07-29T09:33:40.086Z,56.00
2022-07-29T09:36:09.845Z,57.60
2022-07-29T09:38:38.253Z,58.00
2022-07-29T09:41:06.856Z,59.90
2022-07-29T09:43:34.577Z,60.80
2022-07-29T09:46:14.692Z,60.60
2022-07-29T09:48:41.870Z,59.70
2022-07-29T09:51:27.009Z,59.30
2022-07-29T09:54:27.502Z,61.50
2022-07-29T09:56:56.069Z,59.90
2022-07-29T09:59:27.241Z,59.70
2022-07-29T10:01:55.017Z,60.20
2022-07-29T10:04:22.069Z,60.20
2022-07-29T10:07:05.263Z,58.80
2022-07-29T10:09:32.776Z,61.70
2022-07-29T10:12:11.821Z,59.60
2022-07-29T10:14:39.580Z,58.80
2022-07-29T10:17:07.757Z,59.90
2022-07-29T10:19:35.778Z,59.90
2022-07-29T10:22:07.475Z,59.50
2022-07-29T10:24:34.611Z,58.60
2022-07-29T10:27:03.054Z,59.30
2022-07-29T10:29:32.228Z,58.40
2022-07-29T10:32:21.218Z,56.90
2022-07-29T10:35:25.353Z,56.50
2022-07-29T10:38:22.706Z,56.70
2022-07-29T10:44:26.505Z,55.80
2022-07-29T10:46:54.567Z,54.10
2022-07-29T10:49:24.740Z,54.00
2022-07-29T10:51:51.862Z,55.20
2022-07-29T10:54:48.838Z,53.80
2022-07-29T10:57:54.080Z,54.00
2022-07-29T11:00:16.762Z,53.70
2022-07-29T11:02:45.456Z,53.50
2022-07-29T11:05:12.921Z,55.10
2022-07-29T11:08:00.463Z,53.90
2022-07-29T11:10:31.135Z,55.50
2022-07-29T11:12:59.145Z,54.80
2022-07-29T11:15:28.540Z,54.70
2022-07-29T11:17:59.474Z,53.70
2022-07-29T11:20:44.271Z,53.30
2022-07-29T11:26:18.544Z,50.10
2022-07-29T11:28:53.153Z,54.20
2022-07-29T11:31:35.729Z,52.70
2022-07-29T11:34:33.246Z,55.10
2022-07-29T11:37:10.538Z,52.90
2022-07-29T11:39:39.857Z,51.60
2022-07-29T11:42:28.347Z,51.90
2022-07-29T11:45:42.759Z,51.20
2022-07-29T11:48:27.719Z,49.30
2022-07-29T11:50:48.900Z,48.80
2022-07-29T11:53:17.084Z,49.80
2022-07-29T11:55:50.832Z,53.10
2022-07-29T12:01:15.084Z,52.80
2022-07-29T12:03:43.690Z,51.20
2022-07-29T12:06:17.425Z,50.50
2022-07-29T12:08:45.385Z,52.00
2022-07-29T12:11:20.735Z,53.30
2022-07-29T12:13:49.844Z,52.70
2022-07-29T12:16:28.062Z,53.10
2022-07-29T12:19:00.608Z,52.70
2022-07-29T12:21:29.407Z,51.70
2022-07-29T12:24:01.736Z,52.90
2022-07-29T12:26:32.359Z,52.90
2022-07-29T12:29:02.415Z,51.60
2022-07-29T12:31:41.925Z,53.60
2022-07-29T12:34:09.608Z,54.50
2022-07-29T12:36:37.196Z,53.70
2022-07-29T12:39:05.220Z,51.80
2022-07-29T12:41:31.988Z,51.30
2022-07-29T12:43:58.700Z,53.50
2022-07-29T12:46:25.425Z,54.00
2022-07-29T12:48:57.403Z,52.40
2022-07-29T12:51:32.390Z,52.10
2022-07-29T12:54:06.887Z,51.80
2022-07-29T12:56:42.608Z,50.80
2022-07-29T12:59:22.977Z,51.70
2022-07-29T13:01:52.210Z,51.40
2022-07-29T13:04:30.470Z,50.80
2022-07-29T13:07:08.373Z,52.30
2022-07-29T13:09:46.540Z,52.10
2022-07-29T13:12:14.598Z,51.20
2022-07-29T13:14:44.384Z,53.20
2022-07-29T13:17:13.311Z,53.20
2022-07-29T13:19:53.958Z,53.40
2022-07-29T13:22:25.147Z,53.10
2022-07-29T13:25:00.470Z,51.90
2022-07-29T13:27:33.030Z,51.50
2022-07-29T13:30:01.398Z,51.30
2022-07-29T13:32:30.483Z,50.60
2022-07-29T13:34:58.624Z,51.20
2022-07-29T13:37:26.854Z,52.90
2022-07-29T13:39:55.078Z,52.10
2022-07-29T13:42:22.006Z,52.20
2022-07-29T13:44:51.688Z,51.90
2022-07-29T13:47:19.718Z,51.60
2022-07-29T13:49:46.667Z,53.20
2022-07-29T13:52:13.561Z,52.70
2022-07-29T13:54:42.569Z,52.80
2022-07-29T13:57:11.742Z,53.50
2022-07-29T13:59:39.310Z,52.90
2022-07-29T14:02:06.522Z,55.30
2022-07-29T14:04:34.463Z,55.30
2022-07-29T14:07:03.711Z,55.10
2022-07-29T14:09:37.433Z,55.40
2022-07-29T14:12:09.089Z,55.40
2022-07-29T14:14:37.406Z,55.20
2022-07-29T14:17:04.929Z,55.90
2022-07-29T14:19:33.009Z,55.60
2022-07-29T14:22:00.184Z,56.30
2022-07-29T14:24:27.389Z,56.60
2022-07-29T14:26:54.161Z,57.00
2022-07-29T14:29:20.999Z,57.30
2022-07-29T14:31:47.745Z,56.80
2022-07-29T14:34:16.345Z,57.90
2022-07-29T14:36:43.126Z,58.60
2022-07-29T14:39:09.792Z,59.80
2022-07-29T14:41:36.477Z,60.00
2022-07-29T14:44:03.439Z,59.60
2022-07-29T14:46:30.174Z,60.10
2022-07-29T14:48:56.927Z,60.40
2022-07-29T14:51:23.773Z,60.90
2022-07-29T14:53:59.098Z,62.30
2022-07-29T14:56:46.682Z,62.30
2022-07-29T14:59:12.442Z,63.10
2022-07-29T15:01:39.227Z,64.40
2022-07-29T15:04:05.967Z,65.80
2022-07-29T15:06:32.630Z,65.10
2022-07-29T15:08:59.331Z,64.80
2022-07-29T15:11:26.431Z,63.90
2022-07-29T15:13:53.100Z,63.10
2022-07-29T15:16:19.790Z,63.30
2022-07-29T15:18:46.477Z,63.50
2022-07-29T15:21:13.129Z,64.10
2022-07-29T15:23:39.962Z,63.40
2022-07-29T15:26:06.762Z,64.00
2022-07-29T15:28:33.472Z,64.60
2022-07-29T15:31:00.173Z,65.40
2022-07-29T15:33:27.011Z,64.50
2022-07-29T15:35:53.703Z,65.60
2022-07-29T15:38:20.445Z,65.00
2022-07-29T15:40:55.431Z,65.10
2022-07-29T15:43:22.211Z,66.30
2022-07-29T15:46:07.576Z,66.00
2022-07-29T15:48:37.738Z,66.40
2022-07-29T15:51:04.845Z,63.20
2022-07-29T15:53:31.580Z,63.50
2022-07-29T15:55:59.794Z,64.30
2022-07-29T15:58:26.539Z,64.90
2022-07-29T16:00:53.238Z,64.60
2022-07-29T16:03:20.926Z,64.40
2022-07-29T16:05:47.587Z,64.90
2022-07-29T16:08:14.334Z,65.30
2022-07-29T16:10:41.159Z,65.40
2022-07-29T16:13:07.843Z,65.90
2022-07-29T16:15:34.575Z,66.70
2022-07-29T16:18:01.375Z,66.90
2022-07-29T16:20:28.075Z,67.10
2022-07-29T16:22:55.404Z,67.70
2022-07-29T16:25:29.577Z,67.70
2022-07-29T16:28:06.115Z,68.70
2022-07-29T16:30:32.810Z,71.00
2022-07-29T16:32:59.483Z,73.00
2022-07-29T16:35:26.344Z,74.40
2022-07-29T16:38:06.725Z,75.10
2022-07-29T16:40:33.423Z,72.90
2022-07-29T16:43:00.343Z,74.00
2022-07-29T16:45:31.470Z,73.00
2022-07-29T16:48:10.835Z,75.00
2022-07-29T16:50:38.903Z,75.00
2022-07-29T16:53:05.601Z,75.00
2022-07-29T16:55:32.253Z,75.40
2022-07-29T16:57:58.930Z,75.20
2022-07-29T17:00:25.805Z,74.90
2022-07-29T17:02:52.508Z,73.80
2022-07-29T17:05:19.185Z,76.20
2022-07-29T17:07:45.883Z,76.30
2022-07-29T17:10:12.571Z,77.00
2022-07-29T17:12:40.807Z,77.50
2022-07-29T17:15:09.929Z,80.20
2022-07-29T17:17:39.555Z,82.20
2022-07-29T17:20:22.512Z,84.80
2022-07-29T17:22:49.161Z,87.10
2022-07-29T17:25:20.390Z,88.80
2022-07-29T17:27:49.426Z,88.60
2022-07-29T17:30:16.264Z,89.10
2022-07-29T17:32:42.929Z,89.70
2022-07-29T17:35:28.524Z,89.80
2022-07-29T17:37:55.596Z,90.00
2022-07-29T17:40:22.446Z,89.80
2022-07-29T17:42:49.259Z,91.30
2022-07-29T17:45:16.084Z,93.20
2022-07-29T17:47:42.783Z,98.80
2022-07-29T17:50:09.865Z,99.90
2022-07-29T17:52:36.605Z,99.90
2022-07-29T17:55:03.366Z,99.90
2022-07-29T17:57:30.127Z,99.90
2022-07-29T17:59:56.835Z,99.90
2022-07-29T18:02:23.582Z,99.90
2022-07-29T18:04:53.314Z,99.90
2022-07-29T18:07:19.981Z,99.90
2022-07-29T18:09:46.689Z,99.90
2022-07-29T18:12:13.349Z,99.90
2022-07-29T18:14:40.054Z,99.90
2022-07-29T18:17:06.702Z,99.90
2022-07-29T18:19:33.355Z,99.90
2022-07-29T18:22:04.759Z,99.90
2022-07-29T18:24:32.414Z,99.90
2022-07-29T18:26:59.387Z,99.90
2022-07-29T18:29:28.811Z,99.90
2022-07-29T18:31:55.708Z,99.90
2022-07-29T18:34:22.352Z,99.90
2022-07-29T18:36:49.002Z,99.90
2022-07-29T18:39:21.007Z,99.90
2022-07-29T18:41:51.832Z,99.90
2022-07-29T18:44:22.633Z,99.90
2022-07-29T18:46:50.439Z,99.90
2022-07-29T18:49:17.236Z,99.90
2022-07-29T18:51:44.046Z,99.90
2022-07-29T18:54:10.757Z,99.90
2022-07-29T18:56:37.605Z,99.90
2022-07-29T18:59:05.108Z,99.90
2022-07-29T19:01:32.853Z,99.90
2022-07-29T19:04:00.332Z,99.90
2022-07-29T19:06:27.115Z,99.90
2022-07-29T19:08:53.865Z,99.90
2022-07-29T19:11:20.538Z,99.90
2022-07-29T19:13:47.217Z,99.90
2022-07-29T19:16:14.471Z,99.90
2022-07-29T19:18:41.676Z,99.90
2022-07-29T19:21:08.485Z,99.90
2022-07-29T19:24:05.214Z,99.90
2022-07-29T19:26:22.034Z,99.90
2022-07-29T19:28:49.225Z,99.90
2022-07-29T19:31:16.195Z,99.90
2022-07-29T19:33:43.214Z,99.90
2022-07-29T19:36:09.979Z,99.90
2022-07-29T19:38:39.364Z,99.90
2022-07-29T19:41:06.487Z,99.90
2022-07-29T19:43:49.672Z,99.90
2022-07-29T19:46:19.017Z,99.90
2022-07-29T19:48:45.839Z,99.90
2022-07-29T19:51:12.570Z,99.90
2022-07-29T19:53:39.281Z,99.90
2022-07-29T19:56:06.026Z,99.90
2022-07-29T19:58:35.743Z,99.90
2022-07-29T20:01:03.176Z,99.90
2022-07-29T20:03:40.426Z,99.90
2022-07-29T20:06:07.836Z,99.90
2022-07-29T20:08:34.796Z,99.90
2022-07-29T20:11:01.760Z,99.90
2022-07-29T20:13:31.170Z,99.90
2022-07-29T20:15:58.111Z,99.90
2022-07-29T20:18:24.935Z,99.90
2022-07-29T20:20:51.772Z,99.90
2022-07-29T20:23:19.302Z,99.90
2022-07-29T20:25:46.078Z,99.90
2022-07-29T20:28:12.891Z,99.90
2022-07-29T20:30:39.866Z,99.90
2022-07-29T20:33:06.892Z,99.90
2022-07-29T20:35:33.941Z,99.90
2022-07-29T20:38:01.008Z,99.90
2022-07-29T20:40:29.003Z,99.90
2022-07-29T20:42:56.399Z,99.90
2022-07-29T20:45:23.736Z,99.90
2022-07-29T20:47:51.786Z,99.90
2022-07-29T20:50:20.463Z,99.90
2022-07-29T20:52:51.022Z,99.90
2022-07-29T20:55:17.703Z,99.90
2022-07-29T20:57:44.496Z,99.90
2022-07-29T21:00:11.847Z,99.90
2022-07-29T21:02:38.625Z,99.90
2022-07-29T21:05:06.056Z,99.90
2022-07-29T21:07:32.714Z,99.90
2022-07-29T21:09:59.425Z,99.90
2022-07-29T21:12:26.092Z,99.90
2022-07-29T21:14:52.842Z,99.90
2022-07-29T21:17:22.601Z,99.90
2022-07-29T21:19:52.519Z,99.90
2022-07-29T21:22:21.894Z,99.90
2022-07-29T21:24:49.314Z,99.90
2022-07-29T21:27:34.853Z,99.90
2022-07-29T21:30:01.632Z,99.90
2022-07-29T21:32:29.891Z,99.90
2022-07-29T21:34:57.803Z,99.90
2022-07-29T21:37:24.717Z,99.90
2022-07-29T21:39:51.427Z,99.90
2022-07-29T21:42:18.230Z,99.90
2022-07-29T21:44:45.287Z,99.90
2022-07-29T21:47:11.986Z,99.90
2022-07-29T21:49:39.152Z,99.90
2022-07-29T21:52:07.977Z,99.90
2022-07-29T21:54:35.733Z,99.90
2022-07-29T21:57:02.999Z,99.90
2022-07-29T21:59:30.301Z,99.90
2022-07-29T22:02:00.827Z,99.90
2022-07-29T22:04:31.437Z,99.90
2022-07-29T22:06:58.727Z,99.90
2022-07-29T22:09:26.214Z,99.90
2022-07-29T22:11:52.982Z,99.90
2022-07-29T22:14:19.762Z,99.90
2022-07-29T22:16:47.614Z,99.90
2022-07-29T22:19:15.004Z,99.90
2022-07-29T22:21:42.386Z,99.90
2022-07-29T22:24:10.280Z,99.90
2022-07-29T22:26:37.530Z,99.90
2022-07-29T22:29:04.238Z,99.90
2022-07-29T22:31:30.944Z,99.90
2022-07-29T22:33:57.601Z,99.90
2022-07-29T22:36:24.944Z,99.90
2022-07-29T22:38:52.146Z,99.90
2022-07-29T22:41:18.952Z,99.90
2022-07-29T22:43:45.887Z,99.90
2022-07-29T22:46:12.675Z,99.90
2022-07-29T22:48:39.460Z,99.90
2022-07-29T22:51:06.205Z,99.90
2022-07-29T22:53:32.919Z,99.90
2022-07-29T22:55:59.649Z,99.90
2022-07-29T22:58:26.455Z,99.90
2022-07-29T23:00:53.327Z,99.90
2022-07-29T23:03:21.058Z,99.90
2022-07-29T23:05:47.817Z,99.90
2022-07-29T23:08:14.499Z,99.90
2022-07-29T23:10:41.654Z,99.90
2022-07-29T23:13:08.622Z,99.90
2022-07-29T23:15:35.297Z,99.90
2022-07-29T23:18:02.018Z,99.90
2022-07-29T23:20:28.691Z,99.90
2022-07-29T23:22:55.443Z,99.90
2022-07-29T23:25:22.270Z,99.90
2022-07-29T23:27:48.959Z,99.90
2022-07-29T23:30:15.904Z,99.90
2022-07-29T23:32:42.589Z,99.90
2022-07-29T23:35:09.648Z,99.90
2022-07-29T23:37:36.592Z,99.90
2022-07-29T23:40:04.572Z,99.90
2022-07-29T23:42:31.239Z,99.90
2022-07-29T23:44:57.931Z,99.90
2022-07-29T23:47:24.711Z,99.90
2022-07-29T23:49:51.599Z,99.90
2022-07-29T23:52:18.630Z,99.90
2022-07-29T23:54:45.317Z,99.90
2022-07-29T23:57:12.212Z,99.90
2022-07-29T23:59:38.923Z,99.90
